Johnstown, PA (15904)

11:08 PM EST on February 26, 2015 (GMT -0500)
Soap Hollow Road | Change Station
CLOSE
Current Station
Personal Weather Station
Location: Johnstown, PA
Elevation: 1598 ft
Nearby Weather Stations

Elev 1598 ft 40.26 °N, 78.94 °W | Updated 6 minutes ago

Light Snow
Light Snow Mist
16.9 °F
Feels Like 10 °F
N
4.2
Wind Variable Wind from WSW

Today
High -- | Low -- °F
--% Chance of Precip.
Yesterday
High -- | Low -- °F
Precip. -- in
6:53 AM 6:03 PM
Waxing Gibbous, 65% visible
Pressure 30.13 in
Visibility 1.8 miles
Clouds Mostly Cloudy 700 ft
Overcast 2700 ft
Windchill 10 °F
Dew Point 14 °F
Humidity 87%
Rainfall 0.00 in
Snow Depth Not available.
UV 0 out of 12
Pollen .50 out of 12
Air Quality Not available.
Flu Activity Not available.
METAR KJST 270354Z AUTO 29010KT 1 3/4SM -SN BR BKN007 OVC027 M09/M12 A3002 RMK AO2 SLP202 P0000 T10941117

More Conditions Fewer Conditions

Pressure 30.13 in
Visibility 1.8 miles
Clouds Mostly Cloudy 700 ft
Overcast 2700 ft
Windchill 10 °F
Dew Point 14 °F
Humidity 87%
Rainfall 0.00 in
Snow Depth Not available.
UV 0 out of 12
Pollen .50 out of 12
Air Quality Not available.
Flu Activity Not available.
METAR KJST 270354Z AUTO 29010KT 1 3/4SM -SN BR BKN007 OVC027 M09/M12 A3002 RMK AO2 SLP202 P0000 T10941117

More Conditions Fewer Conditions

Nowcast | as of 10:05 PM EST on February 26, 2015

An area of light snow showers will move across the region through midnight...as another shot of Arctic air crosses the state. Although a quick coating of snow is possible in any steadier snow showers... accumulations should generally be light.

×

10-Day Weather Forecast

Almanac

Astronomy

Feb. 26, 2015 Rise Set
Actual Time
Civil Twilight
Nautical Twilight
Astronomical Twilight
Moon
Length of Visible Light
Length of Day
Tomorrow will be .
, % of the Moon is Illuminated

Today's Extremes

State Highs State Lows

Community

WunderPhotos

Upload Photos

1,800,609 photos uploaded!

WunderBlogs® & News

Nearby

Air Quality

  Air Quality AQ Index Pollutant
Not available.

Snow Depth

Station Depth Elevation

Earthquake Activity

City Distance Mag. Time & Date
Minimum magnitude displayed is 2.5.

Coastal Water Temperatures

Place Temperature

Nearby Weather Stations